sensor_id;sensor_type;location;lat;lon;timestamp;P1;durP1;ratioP1;P2;durP2;ratioP2
48524;SDS011;34316;51.514;-0.178;2023-09-08T00:00:53;11.18;;;8.80;;
48524;SDS011;34316;51.514;-0.178;2023-09-08T00:02:55;14.75;;;9.20;;
48524;SDS011;34316;51.514;-0.178;2023-09-08T00:04:57;12.63;;;8.75;;
48524;SDS011;34316;51.514;-0.178;2023-09-08T00:06:58;12.40;;;8.23;;
48524;SDS011;34316;51.514;-0.178;2023-09-08T00:09:02;12.02;;;8.40;;
48524;SDS011;34316;51.514;-0.178;2023-09-08T00:11:04;12.95;;;9.38;;
48524;SDS011;34316;51.514;-0.178;2023-09-08T00:13:06;11.15;;;9.30;;
48524;SDS011;34316;51.514;-0.178;2023-09-08T00:15:08;11.13;;;9.38;;
48524;SDS011;34316;51.514;-0.178;2023-09-08T00:17:10;15.18;;;9.40;;
48524;SDS011;34316;51.514;-0.178;2023-09-08T00:19:12;10.85;;;8.50;;
48524;SDS011;34316;51.514;-0.178;2023-09-08T00:21:14;10.32;;;8.10;;
48524;SDS011;34316;51.514;-0.178;2023-09-08T00:23:16;10.70;;;7.65;;
48524;SDS011;34316;51.514;-0.178;2023-09-08T00:25:17;10.93;;;8.40;;
48524;SDS011;34316;51.514;-0.178;2023-09-08T00:27:19;9.95;;;8.27;;
48524;SDS011;34316;51.514;-0.178;2023-09-08T00:29:22;12.25;;;8.15;;
48524;SDS011;34316;51.514;-0.178;2023-09-08T00:31:25;8.20;;;6.93;;
48524;SDS011;34316;51.514;-0.178;2023-09-08T00:33:29;9.45;;;7.32;;
48524;SDS011;34316;51.514;-0.178;2023-09-08T00:35:31;11.40;;;7.40;;
48524;SDS011;34316;51.514;-0.178;2023-09-08T00:37:33;9.63;;;7.45;;
48524;SDS011;34316;51.514;-0.178;2023-09-08T00:39:35;9.77;;;7.00;;
48524;SDS011;34316;51.514;-0.178;2023-09-08T00:41:37;8.13;;;6.57;;
48524;SDS011;34316;51.514;-0.178;2023-09-08T00:43:39;9.98;;;6.40;;
48524;SDS011;34316;51.514;-0.178;2023-09-08T00:45:41;9.98;;;6.40;;
48524;SDS011;34316;51.514;-0.178;2023-09-08T00:47:44;8.52;;;6.50;;
48524;SDS011;34316;51.514;-0.178;2023-09-08T00:49:46;11.60;;;6.55;;
48524;SDS011;34316;51.514;-0.178;2023-09-08T00:51:47;12.48;;;6.47;;
48524;SDS011;34316;51.514;-0.178;2023-09-08T00:53:49;7.88;;;5.95;;
48524;SDS011;34316;51.514;-0.178;2023-09-08T00:55:51;8.50;;;5.65;;
48524;SDS011;34316;51.514;-0.178;2023-09-08T00:57:53;10.75;;;6.50;;
48524;SDS011;34316;51.514;-0.178;2023-09-08T00:59:55;10.55;;;6.05;;
48524;SDS011;34316;51.514;-0.178;2023-09-08T01:01:57;10.82;;;6.07;;
48524;SDS011;34316;51.514;-0.178;2023-09-08T01:03:59;11.10;;;6.35;;
48524;SDS011;34316;51.514;-0.178;2023-09-08T01:06:00;7.32;;;5.70;;
48524;SDS011;34316;51.514;-0.178;2023-09-08T01:08:02;9.50;;;6.15;;
48524;SDS011;34316;51.514;-0.178;2023-09-08T01:10:05;7.22;;;5.30;;
48524;SDS011;34316;51.514;-0.178;2023-09-08T01:12:07;12.05;;;6.55;;
48524;SDS011;34316;51.514;-0.178;2023-09-08T01:14:11;6.38;;;5.25;;
48524;SDS011;34316;51.514;-0.178;2023-09-08T01:16:13;10.38;;;6.30;;
48524;SDS011;34316;51.514;-0.178;2023-09-08T01:18:15;10.63;;;7.40;;
48524;SDS011;34316;51.514;-0.178;2023-09-08T01:20:18;7.03;;;5.50;;
48524;SDS011;34316;51.514;-0.178;2023-09-08T01:25:37;8.80;;;5.60;;
48524;SDS011;34316;51.514;-0.178;2023-09-08T01:27:21;9.15;;;6.22;;
48524;SDS011;34316;51.514;-0.178;2023-09-08T01:29:24;8.73;;;5.32;;
48524;SDS011;34316;51.514;-0.178;2023-09-08T01:31:27;9.33;;;5.70;;
48524;SDS011;34316;51.514;-0.178;2023-09-08T01:33:28;7.68;;;5.75;;
48524;SDS011;34316;51.514;-0.178;2023-09-08T01:35:30;9.75;;;5.07;;
48524;SDS011;34316;51.514;-0.178;2023-09-08T01:37:32;8.75;;;5.20;;
48524;SDS011;34316;51.514;-0.178;2023-09-08T01:39:34;14.50;;;7.85;;
48524;SDS011;34316;51.514;-0.178;2023-09-08T01:41:37;9.90;;;5.05;;
48524;SDS011;34316;51.514;-0.178;2023-09-08T01:43:38;15.50;;;5.65;;
48524;SDS011;34316;51.514;-0.178;2023-09-08T01:45:40;6.85;;;5.13;;
48524;SDS011;34316;51.514;-0.178;2023-09-08T01:47:42;9.00;;;5.03;;
48524;SDS011;34316;51.514;-0.178;2023-09-08T01:49:43;10.32;;;5.53;;
48524;SDS011;34316;51.514;-0.178;2023-09-08T01:51:45;7.50;;;4.70;;
48524;SDS011;34316;51.514;-0.178;2023-09-08T01:53:47;6.75;;;4.93;;
48524;SDS011;34316;51.514;-0.178;2023-09-08T01:55:49;9.60;;;5.25;;
48524;SDS011;34316;51.514;-0.178;2023-09-08T01:57:50;11.85;;;5.60;;
48524;SDS011;34316;51.514;-0.178;2023-09-08T01:59:53;10.38;;;5.10;;
48524;SDS011;34316;51.514;-0.178;2023-09-08T02:01:56;7.60;;;4.72;;
48524;SDS011;34316;51.514;-0.178;2023-09-08T02:03:58;10.18;;;5.72;;
48524;SDS011;34316;51.514;-0.178;2023-09-08T02:06:00;8.73;;;5.00;;
48524;SDS011;34316;51.514;-0.178;2023-09-08T02:08:02;23.95;;;18.10;;
48524;SDS011;34316;51.514;-0.178;2023-09-08T02:10:05;8.27;;;5.30;;
48524;SDS011;34316;51.514;-0.178;2023-09-08T02:12:07;6.00;;;5.30;;
48524;SDS011;34316;51.514;-0.178;2023-09-08T02:14:09;8.93;;;5.53;;
48524;SDS011;34316;51.514;-0.178;2023-09-08T02:16:14;8.82;;;5.28;;
48524;SDS011;34316;51.514;-0.178;2023-09-08T02:18:16;9.48;;;5.60;;
48524;SDS011;34316;51.514;-0.178;2023-09-08T02:20:19;9.02;;;5.90;;
48524;SDS011;34316;51.514;-0.178;2023-09-08T02:22:20;9.35;;;5.53;;
48524;SDS011;34316;51.514;-0.178;2023-09-08T02:24:23;10.23;;;5.82;;
48524;SDS011;34316;51.514;-0.178;2023-09-08T02:26:24;6.72;;;6.03;;
48524;SDS011;34316;51.514;-0.178;2023-09-08T02:28:27;10.77;;;6.35;;
48524;SDS011;34316;51.514;-0.178;2023-09-08T02:30:29;8.95;;;6.07;;
48524;SDS011;34316;51.514;-0.178;2023-09-08T02:32:31;8.30;;;5.90;;
48524;SDS011;34316;51.514;-0.178;2023-09-08T02:34:36;10.32;;;6.32;;
48524;SDS011;34316;51.514;-0.178;2023-09-08T02:36:38;9.65;;;6.25;;
48524;SDS011;34316;51.514;-0.178;2023-09-08T02:38:40;16.63;;;6.72;;
48524;SDS011;34316;51.514;-0.178;2023-09-08T02:40:42;8.93;;;6.45;;
48524;SDS011;34316;51.514;-0.178;2023-09-08T02:42:44;19.83;;;7.32;;
48524;SDS011;34316;51.514;-0.178;2023-09-08T02:44:46;9.38;;;7.63;;
48524;SDS011;34316;51.514;-0.178;2023-09-08T02:46:47;9.93;;;6.25;;
48524;SDS011;34316;51.514;-0.178;2023-09-08T02:48:49;10.52;;;6.78;;
48524;SDS011;34316;51.514;-0.178;2023-09-08T02:50:52;9.37;;;6.90;;
48524;SDS011;34316;51.514;-0.178;2023-09-08T02:52:55;11.85;;;8.15;;
48524;SDS011;34316;51.514;-0.178;2023-09-08T02:54:57;10.45;;;7.35;;
48524;SDS011;34316;51.514;-0.178;2023-09-08T02:56:58;10.43;;;7.32;;
48524;SDS011;34316;51.514;-0.178;2023-09-08T02:59:00;12.77;;;7.85;;
48524;SDS011;34316;51.514;-0.178;2023-09-08T03:01:12;15.15;;;7.72;;
48524;SDS011;34316;51.514;-0.178;2023-09-08T03:03:18;10.32;;;7.53;;
48524;SDS011;34316;51.514;-0.178;2023-09-08T03:05:20;10.05;;;7.50;;
48524;SDS011;34316;51.514;-0.178;2023-09-08T03:07:22;9.23;;;7.72;;
48524;SDS011;34316;51.514;-0.178;2023-09-08T03:09:23;15.73;;;8.43;;
48524;SDS011;34316;51.514;-0.178;2023-09-08T03:11:25;14.88;;;8.00;;
48524;SDS011;34316;51.514;-0.178;2023-09-08T03:13:27;13.05;;;8.27;;
48524;SDS011;34316;51.514;-0.178;2023-09-08T03:15:30;11.07;;;7.90;;
48524;SDS011;34316;51.514;-0.178;2023-09-08T03:17:32;11.60;;;8.98;;
48524;SDS011;34316;51.514;-0.178;2023-09-08T03:19:34;10.88;;;8.48;;
48524;SDS011;34316;51.514;-0.178;2023-09-08T03:21:35;10.85;;;7.78;;
48524;SDS011;34316;51.514;-0.178;2023-09-08T03:23:38;10.63;;;8.10;;
48524;SDS011;34316;51.514;-0.178;2023-09-08T03:25:40;15.05;;;8.25;;
48524;SDS011;34316;51.514;-0.178;2023-09-08T03:27:41;10.73;;;8.00;;
48524;SDS011;34316;51.514;-0.178;2023-09-08T03:29:43;12.88;;;8.00;;
48524;SDS011;34316;51.514;-0.178;2023-09-08T03:31:45;10.80;;;8.02;;
48524;SDS011;34316;51.514;-0.178;2023-09-08T03:33:47;14.40;;;8.40;;
48524;SDS011;34316;51.514;-0.178;2023-09-08T03:35:49;12.30;;;8.23;;
48524;SDS011;34316;51.514;-0.178;2023-09-08T03:37:50;11.75;;;7.88;;
48524;SDS011;34316;51.514;-0.178;2023-09-08T03:39:52;11.60;;;8.65;;
48524;SDS011;34316;51.514;-0.178;2023-09-08T03:41:54;13.05;;;8.68;;
48524;SDS011;34316;51.514;-0.178;2023-09-08T03:43:56;13.32;;;8.48;;
48524;SDS011;34316;51.514;-0.178;2023-09-08T03:45:58;12.43;;;8.45;;
48524;SDS011;34316;51.514;-0.178;2023-09-08T03:48:00;13.48;;;8.13;;
48524;SDS011;34316;51.514;-0.178;2023-09-08T03:50:01;9.98;;;7.88;;
48524;SDS011;34316;51.514;-0.178;2023-09-08T03:52:03;11.55;;;8.88;;
48524;SDS011;34316;51.514;-0.178;2023-09-08T03:54:05;13.20;;;8.77;;
48524;SDS011;34316;51.514;-0.178;2023-09-08T03:56:07;10.77;;;8.77;;
48524;SDS011;34316;51.514;-0.178;2023-09-08T03:58:09;18.00;;;9.77;;
48524;SDS011;34316;51.514;-0.178;2023-09-08T04:00:11;14.55;;;10.50;;
48524;SDS011;34316;51.514;-0.178;2023-09-08T04:02:13;13.65;;;9.38;;
48524;SDS011;34316;51.514;-0.178;2023-09-08T04:04:15;11.93;;;8.77;;
48524;SDS011;34316;51.514;-0.178;2023-09-08T04:06:17;10.40;;;8.30;;
48524;SDS011;34316;51.514;-0.178;2023-09-08T04:08:18;13.63;;;8.20;;
48524;SDS011;34316;51.514;-0.178;2023-09-08T04:10:20;16.08;;;8.48;;
48524;SDS011;34316;51.514;-0.178;2023-09-08T04:12:22;10.90;;;8.98;;
48524;SDS011;34316;51.514;-0.178;2023-09-08T04:14:23;11.77;;;8.27;;
48524;SDS011;34316;51.514;-0.178;2023-09-08T04:16:28;11.93;;;8.50;;
48524;SDS011;34316;51.514;-0.178;2023-09-08T04:18:30;11.75;;;8.85;;
48524;SDS011;34316;51.514;-0.178;2023-09-08T04:20:33;13.85;;;8.20;;
48524;SDS011;34316;51.514;-0.178;2023-09-08T04:22:35;13.32;;;8.30;;
48524;SDS011;34316;51.514;-0.178;2023-09-08T04:24:37;9.75;;;8.05;;
48524;SDS011;34316;51.514;-0.178;2023-09-08T04:26:38;14.45;;;8.48;;
48524;SDS011;34316;51.514;-0.178;2023-09-08T04:28:40;10.98;;;8.40;;
48524;SDS011;34316;51.514;-0.178;2023-09-08T04:30:43;12.88;;;8.70;;
48524;SDS011;34316;51.514;-0.178;2023-09-08T04:32:45;11.68;;;8.63;;
48524;SDS011;34316;51.514;-0.178;2023-09-08T04:34:47;11.55;;;8.65;;
48524;SDS011;34316;51.514;-0.178;2023-09-08T04:36:50;12.35;;;8.45;;
48524;SDS011;34316;51.514;-0.178;2023-09-08T04:38:52;10.93;;;8.75;;
48524;SDS011;34316;51.514;-0.178;2023-09-08T04:40:54;13.90;;;9.07;;
48524;SDS011;34316;51.514;-0.178;2023-09-08T04:42:55;13.27;;;8.00;;
48524;SDS011;34316;51.514;-0.178;2023-09-08T04:44:57;16.45;;;8.80;;
48524;SDS011;34316;51.514;-0.178;2023-09-08T04:46:59;11.88;;;8.52;;
48524;SDS011;34316;51.514;-0.178;2023-09-08T04:49:00;11.20;;;8.50;;
48524;SDS011;34316;51.514;-0.178;2023-09-08T04:51:02;14.45;;;9.77;;
48524;SDS011;34316;51.514;-0.178;2023-09-08T04:53:04;11.63;;;8.48;;
48524;SDS011;34316;51.514;-0.178;2023-09-08T04:55:06;10.55;;;8.77;;
48524;SDS011;34316;51.514;-0.178;2023-09-08T04:57:08;11.63;;;8.50;;
48524;SDS011;34316;51.514;-0.178;2023-09-08T04:59:23;21.35;;;9.45;;
48524;SDS011;34316;51.514;-0.178;2023-09-08T05:01:25;15.85;;;9.45;;
48524;SDS011;34316;51.514;-0.178;2023-09-08T05:03:26;25.02;;;9.68;;
48524;SDS011;34316;51.514;-0.178;2023-09-08T05:05:28;14.23;;;8.98;;
48524;SDS011;34316;51.514;-0.178;2023-09-08T05:07:30;13.65;;;9.93;;
48524;SDS011;34316;51.514;-0.178;2023-09-08T05:09:32;11.43;;;9.10;;
48524;SDS011;34316;51.514;-0.178;2023-09-08T05:11:35;18.05;;;9.68;;
48524;SDS011;34316;51.514;-0.178;2023-09-08T05:13:37;13.15;;;8.57;;
48524;SDS011;34316;51.514;-0.178;2023-09-08T05:15:38;12.60;;;9.25;;
48524;SDS011;34316;51.514;-0.178;2023-09-08T05:17:41;15.02;;;9.73;;
48524;SDS011;34316;51.514;-0.178;2023-09-08T05:19:42;10.63;;;8.10;;
48524;SDS011;34316;51.514;-0.178;2023-09-08T05:21:44;14.15;;;7.90;;
48524;SDS011;34316;51.514;-0.178;2023-09-08T05:23:46;9.60;;;7.60;;
48524;SDS011;34316;51.514;-0.178;2023-09-08T05:25:48;15.45;;;8.02;;
48524;SDS011;34316;51.514;-0.178;2023-09-08T05:27:50;10.98;;;8.07;;
48524;SDS011;34316;51.514;-0.178;2023-09-08T05:29:51;12.10;;;7.22;;
48524;SDS011;34316;51.514;-0.178;2023-09-08T05:31:54;11.75;;;7.38;;
48524;SDS011;34316;51.514;-0.178;2023-09-08T05:33:55;10.65;;;7.07;;
48524;SDS011;34316;51.514;-0.178;2023-09-08T05:35:57;24.33;;;7.97;;
48524;SDS011;34316;51.514;-0.178;2023-09-08T05:37:59;10.13;;;6.63;;
48524;SDS011;34316;51.514;-0.178;2023-09-08T05:40:01;13.82;;;7.28;;
48524;SDS011;34316;51.514;-0.178;2023-09-08T05:42:03;11.10;;;7.22;;
48524;SDS011;34316;51.514;-0.178;2023-09-08T05:44:05;11.13;;;6.88;;
48524;SDS011;34316;51.514;-0.178;2023-09-08T05:46:06;10.63;;;6.70;;
48524;SDS011;34316;51.514;-0.178;2023-09-08T05:48:08;9.60;;;6.90;;
48524;SDS011;34316;51.514;-0.178;2023-09-08T05:50:10;13.70;;;7.10;;
48524;SDS011;34316;51.514;-0.178;2023-09-08T05:52:12;12.20;;;6.55;;
48524;SDS011;34316;51.514;-0.178;2023-09-08T05:54:14;11.30;;;6.65;;
48524;SDS011;34316;51.514;-0.178;2023-09-08T05:56:17;14.32;;;7.00;;
48524;SDS011;34316;51.514;-0.178;2023-09-08T05:58:20;14.38;;;6.28;;
48524;SDS011;34316;51.514;-0.178;2023-09-08T06:00:22;10.48;;;5.63;;
48524;SDS011;34316;51.514;-0.178;2023-09-08T06:02:23;9.15;;;6.15;;
48524;SDS011;34316;51.514;-0.178;2023-09-08T06:04:25;9.00;;;5.88;;
48524;SDS011;34316;51.514;-0.178;2023-09-08T06:06:27;10.48;;;5.82;;
48524;SDS011;34316;51.514;-0.178;2023-09-08T06:08:29;12.32;;;5.53;;
48524;SDS011;34316;51.514;-0.178;2023-09-08T06:10:31;9.40;;;5.07;;
48524;SDS011;34316;51.514;-0.178;2023-09-08T06:12:33;11.52;;;5.88;;
48524;SDS011;34316;51.514;-0.178;2023-09-08T06:14:35;10.38;;;5.65;;
48524;SDS011;34316;51.514;-0.178;2023-09-08T06:16:36;7.30;;;5.13;;
48524;SDS011;34316;51.514;-0.178;2023-09-08T06:18:38;8.93;;;5.32;;
48524;SDS011;34316;51.514;-0.178;2023-09-08T06:20:45;10.18;;;7.18;;
48524;SDS011;34316;51.514;-0.178;2023-09-08T06:22:48;7.70;;;5.53;;
48524;SDS011;34316;51.514;-0.178;2023-09-08T06:24:50;10.52;;;5.88;;
48524;SDS011;34316;51.514;-0.178;2023-09-08T06:26:52;9.32;;;5.32;;
48524;SDS011;34316;51.514;-0.178;2023-09-08T06:28:54;9.15;;;4.90;;
48524;SDS011;34316;51.514;-0.178;2023-09-08T06:30:55;14.30;;;5.38;;
48524;SDS011;34316;51.514;-0.178;2023-09-08T06:32:57;6.60;;;4.68;;
48524;SDS011;34316;51.514;-0.178;2023-09-08T06:34:59;7.03;;;4.50;;
48524;SDS011;34316;51.514;-0.178;2023-09-08T06:37:01;9.38;;;5.65;;
48524;SDS011;34316;51.514;-0.178;2023-09-08T06:39:03;8.90;;;4.95;;
48524;SDS011;34316;51.514;-0.178;2023-09-08T06:41:08;6.80;;;4.95;;
48524;SDS011;34316;51.514;-0.178;2023-09-08T06:43:12;7.10;;;4.60;;
48524;SDS011;34316;51.514;-0.178;2023-09-08T06:45:13;12.13;;;4.45;;
48524;SDS011;34316;51.514;-0.178;2023-09-08T06:47:16;8.77;;;4.68;;
48524;SDS011;34316;51.514;-0.178;2023-09-08T06:49:18;9.45;;;4.45;;
48524;SDS011;34316;51.514;-0.178;2023-09-08T06:51:19;12.13;;;4.65;;
48524;SDS011;34316;51.514;-0.178;2023-09-08T06:53:21;8.90;;;4.05;;
48524;SDS011;34316;51.514;-0.178;2023-09-08T06:55:28;7.30;;;3.67;;
48524;SDS011;34316;51.514;-0.178;2023-09-08T06:57:29;6.70;;;4.07;;
48524;SDS011;34316;51.514;-0.178;2023-09-08T06:59:31;14.18;;;4.35;;
48524;SDS011;34316;51.514;-0.178;2023-09-08T07:01:34;13.02;;;4.80;;
48524;SDS011;34316;51.514;-0.178;2023-09-08T07:03:37;7.57;;;3.67;;
48524;SDS011;34316;51.514;-0.178;2023-09-08T07:05:39;9.23;;;4.07;;
48524;SDS011;34316;51.514;-0.178;2023-09-08T07:07:42;9.80;;;4.00;;
48524;SDS011;34316;51.514;-0.178;2023-09-08T07:11:46;4.60;;;3.47;;
48524;SDS011;34316;51.514;-0.178;2023-09-08T07:13:48;6.43;;;3.97;;
48524;SDS011;34316;51.514;-0.178;2023-09-08T07:15:50;6.88;;;3.58;;
48524;SDS011;34316;51.514;-0.178;2023-09-08T07:17:51;10.32;;;3.63;;
48524;SDS011;34316;51.514;-0.178;2023-09-08T07:19:54;7.55;;;3.83;;
48524;SDS011;34316;51.514;-0.178;2023-09-08T07:21:55;7.80;;;3.60;;
48524;SDS011;34316;51.514;-0.178;2023-09-08T07:23:57;5.05;;;3.28;;
48524;SDS011;34316;51.514;-0.178;2023-09-08T07:25:59;8.55;;;3.85;;
48524;SDS011;34316;51.514;-0.178;2023-09-08T07:28:01;5.38;;;3.15;;
48524;SDS011;34316;51.514;-0.178;2023-09-08T07:30:03;6.07;;;3.58;;
48524;SDS011;34316;51.514;-0.178;2023-09-08T07:32:06;4.85;;;3.55;;
48524;SDS011;34316;51.514;-0.178;2023-09-08T07:34:08;5.57;;;4.10;;
48524;SDS011;34316;51.514;-0.178;2023-09-08T07:36:10;6.35;;;3.72;;
48524;SDS011;34316;51.514;-0.178;2023-09-08T07:38:12;4.95;;;3.50;;
48524;SDS011;34316;51.514;-0.178;2023-09-08T07:40:13;6.32;;;3.35;;
48524;SDS011;34316;51.514;-0.178;2023-09-08T07:42:15;9.88;;;4.47;;
48524;SDS011;34316;51.514;-0.178;2023-09-08T07:44:17;6.80;;;3.75;;
48524;SDS011;34316;51.514;-0.178;2023-09-08T07:46:19;8.68;;;3.75;;
48524;SDS011;34316;51.514;-0.178;2023-09-08T07:48:20;6.65;;;3.38;;
48524;SDS011;34316;51.514;-0.178;2023-09-08T07:50:25;5.90;;;3.75;;
48524;SDS011;34316;51.514;-0.178;2023-09-08T07:52:28;6.22;;;3.65;;
48524;SDS011;34316;51.514;-0.178;2023-09-08T07:54:30;4.68;;;3.22;;
48524;SDS011;34316;51.514;-0.178;2023-09-08T07:56:32;9.43;;;3.35;;
48524;SDS011;34316;51.514;-0.178;2023-09-08T07:58:34;7.03;;;3.60;;
48524;SDS011;34316;51.514;-0.178;2023-09-08T08:00:36;4.35;;;3.42;;
48524;SDS011;34316;51.514;-0.178;2023-09-08T08:02:50;7.28;;;4.00;;
48524;SDS011;34316;51.514;-0.178;2023-09-08T08:04:53;5.72;;;3.65;;
48524;SDS011;34316;51.514;-0.178;2023-09-08T08:06:55;10.82;;;3.72;;
48524;SDS011;34316;51.514;-0.178;2023-09-08T08:08:56;5.50;;;4.13;;
48524;SDS011;34316;51.514;-0.178;2023-09-08T08:11:01;7.25;;;3.88;;
48524;SDS011;34316;51.514;-0.178;2023-09-08T08:13:03;6.65;;;3.67;;
48524;SDS011;34316;51.514;-0.178;2023-09-08T08:15:05;5.70;;;3.67;;
48524;SDS011;34316;51.514;-0.178;2023-09-08T08:17:07;9.98;;;3.90;;
48524;SDS011;34316;51.514;-0.178;2023-09-08T08:19:09;8.82;;;4.28;;
48524;SDS011;34316;51.514;-0.178;2023-09-08T08:21:11;5.60;;;3.78;;
48524;SDS011;34316;51.514;-0.178;2023-09-08T08:23:13;5.63;;;3.83;;
48524;SDS011;34316;51.514;-0.178;2023-09-08T08:25:15;7.32;;;3.95;;
48524;SDS011;34316;51.514;-0.178;2023-09-08T08:27:17;4.72;;;3.30;;
48524;SDS011;34316;51.514;-0.178;2023-09-08T08:29:19;7.00;;;3.97;;
48524;SDS011;34316;51.514;-0.178;2023-09-08T08:31:20;5.75;;;3.60;;
48524;SDS011;34316;51.514;-0.178;2023-09-08T08:33:22;8.27;;;4.30;;
48524;SDS011;34316;51.514;-0.178;2023-09-08T08:35:26;6.10;;;4.30;;
48524;SDS011;34316;51.514;-0.178;2023-09-08T08:37:28;4.88;;;3.50;;
48524;SDS011;34316;51.514;-0.178;2023-09-08T08:39:30;5.80;;;3.58;;
48524;SDS011;34316;51.514;-0.178;2023-09-08T08:41:31;7.45;;;2.85;;
48524;SDS011;34316;51.514;-0.178;2023-09-08T08:43:35;6.22;;;3.50;;
48524;SDS011;34316;51.514;-0.178;2023-09-08T08:45:37;5.95;;;3.50;;
48524;SDS011;34316;51.514;-0.178;2023-09-08T08:47:40;16.10;;;4.63;;
48524;SDS011;34316;51.514;-0.178;2023-09-08T08:49:46;6.10;;;3.50;;
48524;SDS011;34316;51.514;-0.178;2023-09-08T08:51:49;10.98;;;3.55;;
48524;SDS011;34316;51.514;-0.178;2023-09-08T08:53:51;6.85;;;3.35;;
48524;SDS011;34316;51.514;-0.178;2023-09-08T08:55:54;7.85;;;3.92;;
48524;SDS011;34316;51.514;-0.178;2023-09-08T08:58:00;6.45;;;3.42;;
48524;SDS011;34316;51.514;-0.178;2023-09-08T09:00:06;6.70;;;3.20;;
48524;SDS011;34316;51.514;-0.178;2023-09-08T09:02:11;6.68;;;3.30;;
48524;SDS011;34316;51.514;-0.178;2023-09-08T09:04:13;6.30;;;3.20;;
48524;SDS011;34316;51.514;-0.178;2023-09-08T09:06:16;9.93;;;3.88;;
48524;SDS011;34316;51.514;-0.178;2023-09-08T09:08:17;7.65;;;3.42;;
48524;SDS011;34316;51.514;-0.178;2023-09-08T09:10:19;5.53;;;3.60;;
48524;SDS011;34316;51.514;-0.178;2023-09-08T09:12:21;5.57;;;3.00;;
48524;SDS011;34316;51.514;-0.178;2023-09-08T09:14:23;6.68;;;3.42;;
48524;SDS011;34316;51.514;-0.178;2023-09-08T09:16:25;4.75;;;3.33;;
48524;SDS011;34316;51.514;-0.178;2023-09-08T09:18:27;10.50;;;3.30;;
48524;SDS011;34316;51.514;-0.178;2023-09-08T09:20:32;10.55;;;3.45;;
48524;SDS011;34316;51.514;-0.178;2023-09-08T09:22:36;9.73;;;3.53;;
48524;SDS011;34316;51.514;-0.178;2023-09-08T09:24:39;8.60;;;3.75;;
48524;SDS011;34316;51.514;-0.178;2023-09-08T09:26:43;9.32;;;3.10;;
48524;SDS011;34316;51.514;-0.178;2023-09-08T09:28:48;7.80;;;3.58;;
48524;SDS011;34316;51.514;-0.178;2023-09-08T09:30:51;18.73;;;4.65;;
48524;SDS011;34316;51.514;-0.178;2023-09-08T09:35:04;7.57;;;3.10;;
48524;SDS011;34316;51.514;-0.178;2023-09-08T09:37:08;8.35;;;3.20;;
48524;SDS011;34316;51.514;-0.178;2023-09-08T09:39:12;14.00;;;3.80;;
48524;SDS011;34316;51.514;-0.178;2023-09-08T09:41:13;7.78;;;3.78;;
48524;SDS011;34316;51.514;-0.178;2023-09-08T09:43:15;10.05;;;3.45;;
48524;SDS011;34316;51.514;-0.178;2023-09-08T09:45:18;7.05;;;3.90;;
48524;SDS011;34316;51.514;-0.178;2023-09-08T09:47:20;7.30;;;3.90;;
48524;SDS011;34316;51.514;-0.178;2023-09-08T09:49:22;8.10;;;3.70;;
48524;SDS011;34316;51.514;-0.178;2023-09-08T09:51:28;8.82;;;3.70;;
48524;SDS011;34316;51.514;-0.178;2023-09-08T09:53:30;6.30;;;3.95;;
48524;SDS011;34316;51.514;-0.178;2023-09-08T09:55:32;8.23;;;3.40;;
48524;SDS011;34316;51.514;-0.178;2023-09-08T09:57:33;5.47;;;3.70;;
48524;SDS011;34316;51.514;-0.178;2023-09-08T09:59:36;6.17;;;3.77;;
48524;SDS011;34316;51.514;-0.178;2023-09-08T10:01:38;5.90;;;3.80;;
48524;SDS011;34316;51.514;-0.178;2023-09-08T10:03:41;13.75;;;3.53;;
48524;SDS011;34316;51.514;-0.178;2023-09-08T10:05:43;5.47;;;3.60;;
48524;SDS011;34316;51.514;-0.178;2023-09-08T10:07:46;5.47;;;4.03;;
48524;SDS011;34316;51.514;-0.178;2023-09-08T10:09:49;5.28;;;3.63;;
48524;SDS011;34316;51.514;-0.178;2023-09-08T10:11:51;8.13;;;3.40;;
48524;SDS011;34316;51.514;-0.178;2023-09-08T10:13:57;8.93;;;3.83;;
48524;SDS011;34316;51.514;-0.178;2023-09-08T10:16:00;6.88;;;3.45;;
48524;SDS011;34316;51.514;-0.178;2023-09-08T10:18:04;6.53;;;3.63;;
48524;SDS011;34316;51.514;-0.178;2023-09-08T10:22:12;6.30;;;4.00;;
48524;SDS011;34316;51.514;-0.178;2023-09-08T10:24:18;6.70;;;3.47;;
48524;SDS011;34316;51.514;-0.178;2023-09-08T10:26:26;8.80;;;3.90;;
48524;SDS011;34316;51.514;-0.178;2023-09-08T10:28:30;8.63;;;4.10;;
48524;SDS011;34316;51.514;-0.178;2023-09-08T10:30:34;6.90;;;3.60;;
48524;SDS011;34316;51.514;-0.178;2023-09-08T10:32:36;8.75;;;3.63;;
48524;SDS011;34316;51.514;-0.178;2023-09-08T10:34:39;8.07;;;3.92;;
48524;SDS011;34316;51.514;-0.178;2023-09-08T10:36:41;7.10;;;3.67;;
48524;SDS011;34316;51.514;-0.178;2023-09-08T10:38:43;5.43;;;3.72;;
48524;SDS011;34316;51.514;-0.178;2023-09-08T10:40:49;7.65;;;3.83;;
48524;SDS011;34316;51.514;-0.178;2023-09-08T10:43:06;4.88;;;3.72;;
48524;SDS011;34316;51.514;-0.178;2023-09-08T10:45:18;9.85;;;3.80;;
48524;SDS011;34316;51.514;-0.178;2023-09-08T10:47:22;5.72;;;4.03;;
48524;SDS011;34316;51.514;-0.178;2023-09-08T10:49:27;8.18;;;3.85;;
48524;SDS011;34316;51.514;-0.178;2023-09-08T10:51:36;13.07;;;4.40;;
48524;SDS011;34316;51.514;-0.178;2023-09-08T10:53:39;8.27;;;3.95;;
48524;SDS011;34316;51.514;-0.178;2023-09-08T10:55:45;8.40;;;4.15;;
48524;SDS011;34316;51.514;-0.178;2023-09-08T10:58:20;8.23;;;3.53;;
48524;SDS011;34316;51.514;-0.178;2023-09-08T11:00:22;7.22;;;3.33;;
48524;SDS011;34316;51.514;-0.178;2023-09-08T11:02:41;5.00;;;3.50;;
48524;SDS011;34316;51.514;-0.178;2023-09-08T11:04:44;7.90;;;3.72;;
48524;SDS011;34316;51.514;-0.178;2023-09-08T11:06:46;9.25;;;3.13;;
48524;SDS011;34316;51.514;-0.178;2023-09-08T11:08:47;7.18;;;3.33;;
48524;SDS011;34316;51.514;-0.178;2023-09-08T11:10:50;9.35;;;3.75;;
48524;SDS011;34316;51.514;-0.178;2023-09-08T11:12:53;5.43;;;3.40;;
48524;SDS011;34316;51.514;-0.178;2023-09-08T11:14:55;6.90;;;3.03;;
48524;SDS011;34316;51.514;-0.178;2023-09-08T11:16:58;7.18;;;3.55;;
48524;SDS011;34316;51.514;-0.178;2023-09-08T11:19:04;6.38;;;3.97;;
48524;SDS011;34316;51.514;-0.178;2023-09-08T11:21:07;9.77;;;3.70;;
48524;SDS011;34316;51.514;-0.178;2023-09-08T11:23:10;10.07;;;4.30;;
48524;SDS011;34316;51.514;-0.178;2023-09-08T11:25:11;8.57;;;3.67;;
48524;SDS011;34316;51.514;-0.178;2023-09-08T11:27:13;10.68;;;3.72;;
48524;SDS011;34316;51.514;-0.178;2023-09-08T11:29:15;10.23;;;3.50;;
48524;SDS011;34316;51.514;-0.178;2023-09-08T11:31:17;6.00;;;3.65;;
48524;SDS011;34316;51.514;-0.178;2023-09-08T11:33:19;7.35;;;3.35;;
48524;SDS011;34316;51.514;-0.178;2023-09-08T11:35:26;9.90;;;3.90;;
48524;SDS011;34316;51.514;-0.178;2023-09-08T11:37:29;9.10;;;4.07;;
48524;SDS011;34316;51.514;-0.178;2023-09-08T11:39:30;6.40;;;3.83;;
48524;SDS011;34316;51.514;-0.178;2023-09-08T11:41:32;8.25;;;3.40;;
48524;SDS011;34316;51.514;-0.178;2023-09-08T11:43:34;8.30;;;3.92;;
48524;SDS011;34316;51.514;-0.178;2023-09-08T11:45:36;7.97;;;3.58;;
48524;SDS011;34316;51.514;-0.178;2023-09-08T11:47:41;6.80;;;4.50;;
48524;SDS011;34316;51.514;-0.178;2023-09-08T11:49:44;8.02;;;3.88;;
48524;SDS011;34316;51.514;-0.178;2023-09-08T11:51:47;5.43;;;3.67;;
48524;SDS011;34316;51.514;-0.178;2023-09-08T11:53:49;9.10;;;3.80;;
48524;SDS011;34316;51.514;-0.178;2023-09-08T11:55:51;6.32;;;3.55;;
48524;SDS011;34316;51.514;-0.178;2023-09-08T11:57:53;6.45;;;3.75;;
48524;SDS011;34316;51.514;-0.178;2023-09-08T12:00:04;5.68;;;3.67;;
48524;SDS011;34316;51.514;-0.178;2023-09-08T12:02:07;11.15;;;3.70;;
48524;SDS011;34316;51.514;-0.178;2023-09-08T12:04:16;9.00;;;3.50;;
48524;SDS011;34316;51.514;-0.178;2023-09-08T12:06:19;5.50;;;3.60;;
48524;SDS011;34316;51.514;-0.178;2023-09-08T12:08:24;7.25;;;3.67;;
48524;SDS011;34316;51.514;-0.178;2023-09-08T12:10:26;7.10;;;3.63;;
48524;SDS011;34316;51.514;-0.178;2023-09-08T12:12:28;7.35;;;3.83;;